sensor_id;sensor_type;location;lat;lon;timestamp;temperature;humidity
1592;DHT22;789;51.612;7.510;2022-08-01T00:01:23;21.90;1.00
1592;DHT22;789;51.612;7.510;2022-08-01T00:03:50;22.00;1.00
1592;DHT22;789;51.612;7.510;2022-08-01T00:06:17;21.90;1.00
1592;DHT22;789;51.612;7.510;2022-08-01T00:08:43;21.90;1.00
1592;DHT22;789;51.612;7.510;2022-08-01T00:11:11;21.90;1.00
1592;DHT22;789;51.612;7.510;2022-08-01T00:13:39;21.90;1.00
1592;DHT22;789;51.612;7.510;2022-08-01T00:16:06;21.90;1.00
1592;DHT22;789;51.612;7.510;2022-08-01T00:18:33;21.90;1.00
1592;DHT22;789;51.612;7.510;2022-08-01T00:21:00;21.90;1.00
1592;DHT22;789;51.612;7.510;2022-08-01T00:23:27;21.90;1.00
1592;DHT22;789;51.612;7.510;2022-08-01T00:25:54;21.90;1.00
1592;DHT22;789;51.612;7.510;2022-08-01T00:28:22;21.90;1.00
1592;DHT22;789;51.612;7.510;2022-08-01T00:30:49;21.90;1.00
1592;DHT22;789;51.612;7.510;2022-08-01T00:33:15;21.90;1.00
1592;DHT22;789;51.612;7.510;2022-08-01T00:35:42;21.90;1.00
1592;DHT22;789;51.612;7.510;2022-08-01T00:38:09;21.90;1.00
1592;DHT22;789;51.612;7.510;2022-08-01T00:40:36;21.90;1.00
1592;DHT22;789;51.612;7.510;2022-08-01T00:43:03;21.90;1.00
1592;DHT22;789;51.612;7.510;2022-08-01T00:45:31;21.90;1.00
1592;DHT22;789;51.612;7.510;2022-08-01T00:47:58;21.90;1.00
1592;DHT22;789;51.612;7.510;2022-08-01T00:50:25;21.90;1.00
1592;DHT22;789;51.612;7.510;2022-08-01T00:52:51;21.90;1.00
1592;DHT22;789;51.612;7.510;2022-08-01T00:55:20;21.90;1.00
1592;DHT22;789;51.612;7.510;2022-08-01T00:57:47;21.90;1.00
1592;DHT22;789;51.612;7.510;2022-08-01T01:00:14;21.80;1.00
1592;DHT22;789;51.612;7.510;2022-08-01T01:02:42;21.70;1.00
1592;DHT22;789;51.612;7.510;2022-08-01T01:05:09;21.60;1.00
1592;DHT22;789;51.612;7.510;2022-08-01T01:07:42;21.60;1.00
1592;DHT22;789;51.612;7.510;2022-08-01T01:10:16;21.60;1.00
1592;DHT22;789;51.612;7.510;2022-08-01T01:12:48;21.60;1.00
1592;DHT22;789;51.612;7.510;2022-08-01T01:15:21;21.50;1.00
1592;DHT22;789;51.612;7.510;2022-08-01T01:17:54;21.50;1.00
1592;DHT22;789;51.612;7.510;2022-08-01T01:20:26;21.40;1.00
1592;DHT22;789;51.612;7.510;2022-08-01T01:23:15;21.50;1.00
1592;DHT22;789;51.612;7.510;2022-08-01T01:26:01;21.50;1.00
1592;DHT22;789;51.612;7.510;2022-08-01T01:28:35;21.50;1.00
1592;DHT22;789;51.612;7.510;2022-08-01T01:31:06;21.60;1.00
1592;DHT22;789;51.612;7.510;2022-08-01T01:33:35;21.60;1.00
1592;DHT22;789;51.612;7.510;2022-08-01T01:36:05;21.60;1.00
1592;DHT22;789;51.612;7.510;2022-08-01T01:38:38;21.60;1.00
1592;DHT22;789;51.612;7.510;2022-08-01T01:41:07;21.60;1.00
1592;DHT22;789;51.612;7.510;2022-08-01T01:43:35;21.60;1.00
1592;DHT22;789;51.612;7.510;2022-08-01T01:46:05;21.70;1.00
1592;DHT22;789;51.612;7.510;2022-08-01T01:48:34;21.50;1.00
1592;DHT22;789;51.612;7.510;2022-08-01T01:51:02;21.60;1.00
1592;DHT22;789;51.612;7.510;2022-08-01T01:53:32;21.60;1.00
1592;DHT22;789;51.612;7.510;2022-08-01T01:56:02;21.60;1.00
1592;DHT22;789;51.612;7.510;2022-08-01T01:58:31;21.60;1.00
1592;DHT22;789;51.612;7.510;2022-08-01T02:00:59;21.60;1.00
1592;DHT22;789;51.612;7.510;2022-08-01T02:03:29;21.60;1.00
1592;DHT22;789;51.612;7.510;2022-08-01T02:05:57;21.60;1.00
1592;DHT22;789;51.612;7.510;2022-08-01T02:08:24;21.70;1.00
1592;DHT22;789;51.612;7.510;2022-08-01T02:10:53;21.70;1.00
1592;DHT22;789;51.612;7.510;2022-08-01T02:13:40;21.70;1.00
1592;DHT22;789;51.612;7.510;2022-08-01T02:16:09;21.80;1.00
1592;DHT22;789;51.612;7.510;2022-08-01T02:18:38;21.70;1.00
1592;DHT22;789;51.612;7.510;2022-08-01T02:21:08;21.80;1.00
1592;DHT22;789;51.612;7.510;2022-08-01T02:23:38;21.80;1.00
1592;DHT22;789;51.612;7.510;2022-08-01T02:26:09;21.80;1.00
1592;DHT22;789;51.612;7.510;2022-08-01T02:28:43;21.80;1.00
1592;DHT22;789;51.612;7.510;2022-08-01T02:31:13;21.80;1.00
1592;DHT22;789;51.612;7.510;2022-08-01T02:33:44;21.70;1.00
1592;DHT22;789;51.612;7.510;2022-08-01T02:36:12;21.70;1.00
1592;DHT22;789;51.612;7.510;2022-08-01T02:38:41;21.70;1.00
1592;DHT22;789;51.612;7.510;2022-08-01T02:41:11;21.70;1.00
1592;DHT22;789;51.612;7.510;2022-08-01T02:43:46;21.60;1.00
1592;DHT22;789;51.612;7.510;2022-08-01T02:46:18;21.60;1.00
1592;DHT22;789;51.612;7.510;2022-08-01T02:48:48;21.60;1.00
1592;DHT22;789;51.612;7.510;2022-08-01T02:51:16;21.70;1.00
1592;DHT22;789;51.612;7.510;2022-08-01T02:53:45;21.70;1.00
1592;DHT22;789;51.612;7.510;2022-08-01T02:56:13;21.70;1.00
1592;DHT22;789;51.612;7.510;2022-08-01T02:58:43;21.60;1.00
1592;DHT22;789;51.612;7.510;2022-08-01T03:01:11;21.60;1.00
1592;DHT22;789;51.612;7.510;2022-08-01T03:03:39;21.60;1.00
1592;DHT22;789;51.612;7.510;2022-08-01T03:06:08;21.60;1.00
1592;DHT22;789;51.612;7.510;2022-08-01T03:08:36;21.60;1.00
1592;DHT22;789;51.612;7.510;2022-08-01T03:11:05;21.60;1.00
1592;DHT22;789;51.612;7.510;2022-08-01T03:13:33;21.60;1.00
1592;DHT22;789;51.612;7.510;2022-08-01T03:16:02;21.60;1.00
1592;DHT22;789;51.612;7.510;2022-08-01T03:18:31;21.60;1.00
1592;DHT22;789;51.612;7.510;2022-08-01T03:21:01;21.60;1.00
1592;DHT22;789;51.612;7.510;2022-08-01T03:23:30;21.50;1.00
1592;DHT22;789;51.612;7.510;2022-08-01T03:26:00;21.50;1.00
1592;DHT22;789;51.612;7.510;2022-08-01T03:28:27;21.80;1.00
1592;DHT22;789;51.612;7.510;2022-08-01T03:30:56;21.40;1.00
1592;DHT22;789;51.612;7.510;2022-08-01T03:33:22;21.40;1.00
1592;DHT22;789;51.612;7.510;2022-08-01T03:35:53;21.40;1.00
1592;DHT22;789;51.612;7.510;2022-08-01T03:38:23;21.40;1.00
1592;DHT22;789;51.612;7.510;2022-08-01T03:40:55;21.40;1.00
1592;DHT22;789;51.612;7.510;2022-08-01T03:43:33;21.30;1.00
1592;DHT22;789;51.612;7.510;2022-08-01T03:46:06;21.30;1.00
1592;DHT22;789;51.612;7.510;2022-08-01T03:48:36;21.30;1.00
1592;DHT22;789;51.612;7.510;2022-08-01T03:51:06;21.20;1.00
1592;DHT22;789;51.612;7.510;2022-08-01T03:53:34;21.10;1.00
1592;DHT22;789;51.612;7.510;2022-08-01T03:56:06;21.10;1.00
1592;DHT22;789;51.612;7.510;2022-08-01T03:58:35;21.00;1.00
1592;DHT22;789;51.612;7.510;2022-08-01T04:01:03;21.00;1.00
1592;DHT22;789;51.612;7.510;2022-08-01T04:03:30;21.00;1.00
1592;DHT22;789;51.612;7.510;2022-08-01T04:05:57;20.90;1.00
1592;DHT22;789;51.612;7.510;2022-08-01T04:08:34;20.90;1.00
1592;DHT22;789;51.612;7.510;2022-08-01T04:11:01;20.80;1.00
1592;DHT22;789;51.612;7.510;2022-08-01T04:13:30;20.70;1.00
1592;DHT22;789;51.612;7.510;2022-08-01T04:15:57;20.70;1.00
1592;DHT22;789;51.612;7.510;2022-08-01T04:18:23;20.60;1.00
1592;DHT22;789;51.612;7.510;2022-08-01T04:20:50;20.70;1.00
1592;DHT22;789;51.612;7.510;2022-08-01T04:23:20;20.60;1.00
1592;DHT22;789;51.612;7.510;2022-08-01T04:25:47;20.60;1.00
1592;DHT22;789;51.612;7.510;2022-08-01T04:28:16;20.60;1.00
1592;DHT22;789;51.612;7.510;2022-08-01T04:30:47;20.60;1.00
1592;DHT22;789;51.612;7.510;2022-08-01T04:33:17;20.70;1.00
1592;DHT22;789;51.612;7.510;2022-08-01T04:35:47;20.70;1.00
1592;DHT22;789;51.612;7.510;2022-08-01T04:38:19;20.70;1.00
1592;DHT22;789;51.612;7.510;2022-08-01T04:40:46;20.70;1.00
1592;DHT22;789;51.612;7.510;2022-08-01T04:43:15;20.70;1.00
1592;DHT22;789;51.612;7.510;2022-08-01T04:45:43;20.80;1.00
1592;DHT22;789;51.612;7.510;2022-08-01T04:48:13;20.80;1.00
1592;DHT22;789;51.612;7.510;2022-08-01T04:50:41;20.80;1.00
1592;DHT22;789;51.612;7.510;2022-08-01T04:53:12;20.80;1.00
1592;DHT22;789;51.612;7.510;2022-08-01T04:55:39;20.80;1.00
1592;DHT22;789;51.612;7.510;2022-08-01T04:58:06;20.90;1.00
1592;DHT22;789;51.612;7.510;2022-08-01T05:00:35;20.80;1.00
1592;DHT22;789;51.612;7.510;2022-08-01T05:03:02;20.90;1.00
1592;DHT22;789;51.612;7.510;2022-08-01T05:05:30;20.90;1.00
1592;DHT22;789;51.612;7.510;2022-08-01T05:07:57;21.00;1.00
1592;DHT22;789;51.612;7.510;2022-08-01T05:10:24;21.00;1.00
1592;DHT22;789;51.612;7.510;2022-08-01T05:12:51;21.10;1.00
1592;DHT22;789;51.612;7.510;2022-08-01T05:15:18;21.00;1.00
1592;DHT22;789;51.612;7.510;2022-08-01T05:17:45;21.10;1.00
1592;DHT22;789;51.612;7.510;2022-08-01T05:20:12;21.20;1.00
1592;DHT22;789;51.612;7.510;2022-08-01T05:22:44;21.30;1.00
1592;DHT22;789;51.612;7.510;2022-08-01T05:25:11;21.30;1.00
1592;DHT22;789;51.612;7.510;2022-08-01T05:27:38;21.40;1.00
1592;DHT22;789;51.612;7.510;2022-08-01T05:30:07;21.40;1.00
1592;DHT22;789;51.612;7.510;2022-08-01T05:32:34;21.40;1.00
1592;DHT22;789;51.612;7.510;2022-08-01T05:35:01;21.40;1.00
1592;DHT22;789;51.612;7.510;2022-08-01T05:37:28;21.40;1.00
1592;DHT22;789;51.612;7.510;2022-08-01T05:39:56;21.40;1.00
1592;DHT22;789;51.612;7.510;2022-08-01T05:42:22;21.40;1.00
1592;DHT22;789;51.612;7.510;2022-08-01T05:44:49;21.40;1.00
1592;DHT22;789;51.612;7.510;2022-08-01T05:47:16;21.40;1.00
1592;DHT22;789;51.612;7.510;2022-08-01T05:49:43;21.40;1.00
1592;DHT22;789;51.612;7.510;2022-08-01T05:52:10;21.50;1.00
1592;DHT22;789;51.612;7.510;2022-08-01T05:54:39;21.50;1.00
1592;DHT22;789;51.612;7.510;2022-08-01T05:57:07;21.50;1.00
1592;DHT22;789;51.612;7.510;2022-08-01T05:59:35;21.40;1.00
1592;DHT22;789;51.612;7.510;2022-08-01T06:02:02;21.40;1.00
1592;DHT22;789;51.612;7.510;2022-08-01T06:04:29;21.40;1.00
1592;DHT22;789;51.612;7.510;2022-08-01T06:06:56;21.40;1.00
1592;DHT22;789;51.612;7.510;2022-08-01T06:09:25;21.60;1.00
1592;DHT22;789;51.612;7.510;2022-08-01T06:11:52;21.60;1.00
1592;DHT22;789;51.612;7.510;2022-08-01T06:14:20;21.70;1.00
1592;DHT22;789;51.612;7.510;2022-08-01T06:16:47;21.70;1.00
1592;DHT22;789;51.612;7.510;2022-08-01T06:19:14;21.80;1.00
1592;DHT22;789;51.612;7.510;2022-08-01T06:21:40;21.80;1.00
1592;DHT22;789;51.612;7.510;2022-08-01T06:24:07;21.80;1.00
1592;DHT22;789;51.612;7.510;2022-08-01T06:26:34;21.80;1.00
1592;DHT22;789;51.612;7.510;2022-08-01T06:29:02;21.90;1.00
1592;DHT22;789;51.612;7.510;2022-08-01T06:31:30;22.10;1.00
1592;DHT22;789;51.612;7.510;2022-08-01T06:33:57;22.20;1.00
1592;DHT22;789;51.612;7.510;2022-08-01T06:36:24;22.40;1.00
1592;DHT22;789;51.612;7.510;2022-08-01T06:38:51;22.50;1.00
1592;DHT22;789;51.612;7.510;2022-08-01T06:41:17;22.60;1.00
1592;DHT22;789;51.612;7.510;2022-08-01T06:43:44;22.70;1.00
1592;DHT22;789;51.612;7.510;2022-08-01T06:46:11;22.90;1.00
1592;DHT22;789;51.612;7.510;2022-08-01T06:48:39;23.00;1.00
1592;DHT22;789;51.612;7.510;2022-08-01T06:51:06;23.20;1.00
1592;DHT22;789;51.612;7.510;2022-08-01T06:53:39;23.40;1.00
1592;DHT22;789;51.612;7.510;2022-08-01T06:56:06;23.60;1.00
1592;DHT22;789;51.612;7.510;2022-08-01T06:58:35;23.60;1.00
1592;DHT22;789;51.612;7.510;2022-08-01T07:01:02;23.50;1.00
1592;DHT22;789;51.612;7.510;2022-08-01T07:03:31;23.50;1.00
1592;DHT22;789;51.612;7.510;2022-08-01T07:05:59;23.70;1.00
1592;DHT22;789;51.612;7.510;2022-08-01T07:08:25;23.80;1.00
1592;DHT22;789;51.612;7.510;2022-08-01T07:10:52;23.90;1.00
1592;DHT22;789;51.612;7.510;2022-08-01T07:13:19;24.10;1.00
1592;DHT22;789;51.612;7.510;2022-08-01T07:15:50;24.30;1.00
1592;DHT22;789;51.612;7.510;2022-08-01T07:18:18;24.50;1.00
1592;DHT22;789;51.612;7.510;2022-08-01T07:20:44;24.70;1.00
1592;DHT22;789;51.612;7.510;2022-08-01T07:23:13;24.90;1.00
1592;DHT22;789;51.612;7.510;2022-08-01T07:25:39;25.20;1.00
1592;DHT22;789;51.612;7.510;2022-08-01T07:28:06;25.50;1.00
1592;DHT22;789;51.612;7.510;2022-08-01T07:30:33;25.70;1.00
1592;DHT22;789;51.612;7.510;2022-08-01T07:33:00;26.00;1.00
1592;DHT22;789;51.612;7.510;2022-08-01T07:35:27;26.60;1.00
1592;DHT22;789;51.612;7.510;2022-08-01T07:37:54;27.00;1.00
1592;DHT22;789;51.612;7.510;2022-08-01T07:40:22;27.40;1.00
1592;DHT22;789;51.612;7.510;2022-08-01T07:42:51;27.60;1.00
1592;DHT22;789;51.612;7.510;2022-08-01T07:45:18;27.40;1.00
1592;DHT22;789;51.612;7.510;2022-08-01T07:47:46;27.40;1.00
1592;DHT22;789;51.612;7.510;2022-08-01T07:50:15;27.40;1.00
1592;DHT22;789;51.612;7.510;2022-08-01T07:52:42;27.50;1.00
1592;DHT22;789;51.612;7.510;2022-08-01T07:55:10;27.90;1.00
1592;DHT22;789;51.612;7.510;2022-08-01T07:57:39;28.40;1.00
1592;DHT22;789;51.612;7.510;2022-08-01T08:00:07;28.60;1.00
1592;DHT22;789;51.612;7.510;2022-08-01T08:02:35;28.50;1.00
1592;DHT22;789;51.612;7.510;2022-08-01T08:05:01;28.20;1.00
1592;DHT22;789;51.612;7.510;2022-08-01T08:07:30;28.10;1.00
1592;DHT22;789;51.612;7.510;2022-08-01T08:09:57;27.80;1.00
1592;DHT22;789;51.612;7.510;2022-08-01T08:12:24;28.00;1.00
1592;DHT22;789;51.612;7.510;2022-08-01T08:14:54;28.20;1.00
1592;DHT22;789;51.612;7.510;2022-08-01T08:17:26;28.10;1.00
1592;DHT22;789;51.612;7.510;2022-08-01T08:19:53;28.10;1.00
1592;DHT22;789;51.612;7.510;2022-08-01T08:22:20;28.30;1.00
1592;DHT22;789;51.612;7.510;2022-08-01T08:24:47;28.40;1.00
1592;DHT22;789;51.612;7.510;2022-08-01T08:27:14;28.00;1.00
1592;DHT22;789;51.612;7.510;2022-08-01T08:29:41;27.50;1.00
1592;DHT22;789;51.612;7.510;2022-08-01T08:32:09;27.30;1.00
1592;DHT22;789;51.612;7.510;2022-08-01T08:34:36;27.10;1.00
1592;DHT22;789;51.612;7.510;2022-08-01T08:37:03;27.10;1.00
1592;DHT22;789;51.612;7.510;2022-08-01T08:39:29;27.30;1.00
1592;DHT22;789;51.612;7.510;2022-08-01T08:41:58;27.50;1.00
1592;DHT22;789;51.612;7.510;2022-08-01T08:44:27;27.40;1.00
1592;DHT22;789;51.612;7.510;2022-08-01T08:46:55;27.30;1.00
1592;DHT22;789;51.612;7.510;2022-08-01T08:49:28;27.30;1.00
1592;DHT22;789;51.612;7.510;2022-08-01T08:51:58;27.40;1.00
1592;DHT22;789;51.612;7.510;2022-08-01T08:54:27;27.80;1.00
1592;DHT22;789;51.612;7.510;2022-08-01T08:56:55;28.30;1.00
1592;DHT22;789;51.612;7.510;2022-08-01T08:59:22;28.70;1.00
1592;DHT22;789;51.612;7.510;2022-08-01T09:01:50;28.90;1.00
1592;DHT22;789;51.612;7.510;2022-08-01T09:04:18;28.90;1.00
1592;DHT22;789;51.612;7.510;2022-08-01T09:06:48;28.80;1.00
1592;DHT22;789;51.612;7.510;2022-08-01T09:09:15;29.20;1.00
1592;DHT22;789;51.612;7.510;2022-08-01T09:11:41;29.50;1.00
1592;DHT22;789;51.612;7.510;2022-08-01T09:14:10;30.30;1.00
1592;DHT22;789;51.612;7.510;2022-08-01T09:16:41;31.70;1.00
1592;DHT22;789;51.612;7.510;2022-08-01T09:19:11;32.50;1.00
1592;DHT22;789;51.612;7.510;2022-08-01T09:21:39;33.30;1.00
1592;DHT22;789;51.612;7.510;2022-08-01T09:24:23;34.30;1.00
1592;DHT22;789;51.612;7.510;2022-08-01T09:26:50;34.80;1.00
1592;DHT22;789;51.612;7.510;2022-08-01T09:29:19;34.70;1.00
1592;DHT22;789;51.612;7.510;2022-08-01T09:31:46;34.10;1.00
1592;DHT22;789;51.612;7.510;2022-08-01T09:34:13;33.00;1.00
1592;DHT22;789;51.612;7.510;2022-08-01T09:36:45;32.10;1.00
1592;DHT22;789;51.612;7.510;2022-08-01T09:39:14;31.00;1.00
1592;DHT22;789;51.612;7.510;2022-08-01T09:41:43;30.20;1.00
1592;DHT22;789;51.612;7.510;2022-08-01T09:44:09;29.50;1.00
1592;DHT22;789;51.612;7.510;2022-08-01T09:46:48;29.30;1.00
1592;DHT22;789;51.612;7.510;2022-08-01T09:49:27;29.70;1.00
1592;DHT22;789;51.612;7.510;2022-08-01T09:51:55;30.10;1.00
1592;DHT22;789;51.612;7.510;2022-08-01T09:54:30;30.00;1.00
1592;DHT22;789;51.612;7.510;2022-08-01T09:57:10;30.70;1.00
1592;DHT22;789;51.612;7.510;2022-08-01T09:59:38;32.50;1.00
1592;DHT22;789;51.612;7.510;2022-08-01T10:02:07;34.20;1.00
1592;DHT22;789;51.612;7.510;2022-08-01T10:04:36;35.40;1.00
1592;DHT22;789;51.612;7.510;2022-08-01T10:07:07;35.50;1.00
1592;DHT22;789;51.612;7.510;2022-08-01T10:09:35;34.70;1.00
1592;DHT22;789;51.612;7.510;2022-08-01T10:12:04;34.10;1.00
1592;DHT22;789;51.612;7.510;2022-08-01T10:14:32;33.70;1.00
1592;DHT22;789;51.612;7.510;2022-08-01T10:17:01;34.00;1.00
1592;DHT22;789;51.612;7.510;2022-08-01T10:19:29;34.70;1.00
1592;DHT22;789;51.612;7.510;2022-08-01T10:21:58;35.00;1.00
1592;DHT22;789;51.612;7.510;2022-08-01T10:24:26;34.40;1.00
1592;DHT22;789;51.612;7.510;2022-08-01T10:26:57;33.80;1.00
1592;DHT22;789;51.612;7.510;2022-08-01T10:29:28;33.20;1.00
1592;DHT22;789;51.612;7.510;2022-08-01T10:31:59;32.60;1.00
1592;DHT22;789;51.612;7.510;2022-08-01T10:34:26;32.20;1.00
1592;DHT22;789;51.612;7.510;2022-08-01T10:36:54;32.40;1.00
1592;DHT22;789;51.612;7.510;2022-08-01T10:39:20;32.80;1.00
1592;DHT22;789;51.612;7.510;2022-08-01T10:41:48;32.50;1.00
1592;DHT22;789;51.612;7.510;2022-08-01T10:44:18;31.70;1.00
1592;DHT22;789;51.612;7.510;2022-08-01T10:46:48;31.00;1.00
1592;DHT22;789;51.612;7.510;2022-08-01T10:49:22;30.40;1.00
1592;DHT22;789;51.612;7.510;2022-08-01T10:51:51;29.90;1.00
1592;DHT22;789;51.612;7.510;2022-08-01T10:54:18;29.40;1.00
1592;DHT22;789;51.612;7.510;2022-08-01T10:56:46;29.10;1.00
1592;DHT22;789;51.612;7.510;2022-08-01T10:59:15;28.70;1.00
1592;DHT22;789;51.612;7.510;2022-08-01T11:01:56;28.20;1.00
1592;DHT22;789;51.612;7.510;2022-08-01T11:04:35;28.00;1.00
1592;DHT22;789;51.612;7.510;2022-08-01T11:07:05;28.20;1.00
1592;DHT22;789;51.612;7.510;2022-08-01T11:09:41;28.80;1.00
1592;DHT22;789;51.612;7.510;2022-08-01T11:12:10;29.10;1.00
1592;DHT22;789;51.612;7.510;2022-08-01T11:17:43;29.70;1.00
1592;DHT22;789;51.612;7.510;2022-08-01T11:20:16;30.90;1.00
1592;DHT22;789;51.612;7.510;2022-08-01T11:26:10;32.10;1.00
1592;DHT22;789;51.612;7.510;2022-08-01T11:28:38;32.80;1.00
1592;DHT22;789;51.612;7.510;2022-08-01T11:31:26;33.80;1.00
1592;DHT22;789;51.612;7.510;2022-08-01T11:33:53;34.80;1.00
1592;DHT22;789;51.612;7.510;2022-08-01T11:36:21;35.00;1.00
1592;DHT22;789;51.612;7.510;2022-08-01T11:38:50;35.40;1.00
1592;DHT22;789;51.612;7.510;2022-08-01T11:41:36;35.60;1.00
1592;DHT22;789;51.612;7.510;2022-08-01T11:44:04;35.80;1.00
1592;DHT22;789;51.612;7.510;2022-08-01T11:46:58;36.00;1.00
1592;DHT22;789;51.612;7.510;2022-08-01T11:49:44;35.80;1.00
1592;DHT22;789;51.612;7.510;2022-08-01T11:52:14;35.20;1.00
1592;DHT22;789;51.612;7.510;2022-08-01T11:54:42;34.50;1.00
1592;DHT22;789;51.612;7.510;2022-08-01T11:57:11;33.70;1.00
1592;DHT22;789;51.612;7.510;2022-08-01T11:59:40;32.80;1.00
1592;DHT22;789;51.612;7.510;2022-08-01T12:02:18;32.20;1.00
1592;DHT22;789;51.612;7.510;2022-08-01T12:04:47;31.60;1.00
1592;DHT22;789;51.612;7.510;2022-08-01T12:07:16;30.90;1.00
1592;DHT22;789;51.612;7.510;2022-08-01T12:09:43;30.40;1.00
1592;DHT22;789;51.612;7.510;2022-08-01T12:12:14;30.00;1.00
1592;DHT22;789;51.612;7.510;2022-08-01T12:14:42;29.50;1.00
1592;DHT22;789;51.612;7.510;2022-08-01T12:17:09;29.10;1.00
1592;DHT22;789;51.612;7.510;2022-08-01T12:19:39;28.60;1.00
1592;DHT22;789;51.612;7.510;2022-08-01T12:22:11;28.50;1.00
1592;DHT22;789;51.612;7.510;2022-08-01T12:24:43;28.40;1.00
1592;DHT22;789;51.612;7.510;2022-08-01T12:27:10;28.50;1.00
1592;DHT22;789;51.612;7.510;2022-08-01T12:29:41;28.40;1.00
1592;DHT22;789;51.612;7.510;2022-08-01T12:32:31;28.40;1.00
1592;DHT22;789;51.612;7.510;2022-08-01T12:35:01;28.30;1.00
1592;DHT22;789;51.612;7.510;2022-08-01T12:37:29;28.20;1.00
1592;DHT22;789;51.612;7.510;2022-08-01T12:39:57;28.30;1.00
1592;DHT22;789;51.612;7.510;2022-08-01T12:42:24;28.30;1.00
1592;DHT22;789;51.612;7.510;2022-08-01T12:44:54;28.20;1.00
1592;DHT22;789;51.612;7.510;2022-08-01T12:47:21;28.00;1.00
1592;DHT22;789;51.612;7.510;2022-08-01T12:49:49;28.00;1.00
1592;DHT22;789;51.612;7.510;2022-08-01T12:52:16;28.00;1.00
1592;DHT22;789;51.612;7.510;2022-08-01T12:55:02;28.00;1.00
1592;DHT22;789;51.612;7.510;2022-08-01T12:57:30;28.10;1.00
1592;DHT22;789;51.612;7.510;2022-08-01T13:00:19;28.20;1.00
1592;DHT22;789;51.612;7.510;2022-08-01T13:02:47;28.20;1.00
1592;DHT22;789;51.612;7.510;2022-08-01T13:05:15;28.30;1.00
1592;DHT22;789;51.612;7.510;2022-08-01T13:07:47;28.50;1.00
1592;DHT22;789;51.612;7.510;2022-08-01T13:10:25;28.50;1.00
1592;DHT22;789;51.612;7.510;2022-08-01T13:12:56;28.60;1.00
1592;DHT22;789;51.612;7.510;2022-08-01T13:15:28;28.50;1.00
1592;DHT22;789;51.612;7.510;2022-08-01T13:17:57;28.20;1.00
1592;DHT22;789;51.612;7.510;2022-08-01T13:20:26;28.20;1.00
1592;DHT22;789;51.612;7.510;2022-08-01T13:22:53;28.10;1.00
1592;DHT22;789;51.612;7.510;2022-08-01T13:25:21;28.20;1.00
1592;DHT22;789;51.612;7.510;2022-08-01T13:27:48;28.10;1.00
1592;DHT22;789;51.612;7.510;2022-08-01T13:30:16;28.00;1.00
1592;DHT22;789;51.612;7.510;2022-08-01T13:32:44;27.80;1.00
1592;DHT22;789;51.612;7.510;2022-08-01T13:35:12;27.80;1.00
1592;DHT22;789;51.612;7.510;2022-08-01T13:37:41;27.60;1.00
1592;DHT22;789;51.612;7.510;2022-08-01T13:40:09;27.60;1.00
1592;DHT22;789;51.612;7.510;2022-08-01T13:42:40;27.50;1.00
1592;DHT22;789;51.612;7.510;2022-08-01T13:45:07;27.50;1.00
1592;DHT22;789;51.612;7.510;2022-08-01T13:47:36;27.50;1.00
1592;DHT22;789;51.612;7.510;2022-08-01T13:50:03;27.50;1.00
1592;DHT22;789;51.612;7.510;2022-08-01T13:52:30;27.50;1.00
1592;DHT22;789;51.612;7.510;2022-08-01T13:54:57;27.50;1.00
1592;DHT22;789;51.612;7.510;2022-08-01T13:57:24;27.40;1.00
1592;DHT22;789;51.612;7.510;2022-08-01T13:59:52;27.50;1.00
1592;DHT22;789;51.612;7.510;2022-08-01T14:02:19;27.50;1.00
1592;DHT22;789;51.612;7.510;2022-08-01T14:04:45;27.60;1.00
1592;DHT22;789;51.612;7.510;2022-08-01T14:07:12;27.80;1.00
1592;DHT22;789;51.612;7.510;2022-08-01T14:09:39;27.80;1.00
1592;DHT22;789;51.612;7.510;2022-08-01T14:12:06;27.70;1.00
1592;DHT22;789;51.612;7.510;2022-08-01T14:14:33;27.60;1.00
1592;DHT22;789;51.612;7.510;2022-08-01T14:17:02;27.50;1.00
1592;DHT22;789;51.612;7.510;2022-08-01T14:19:29;27.50;1.00
1592;DHT22;789;51.612;7.510;2022-08-01T14:21:56;27.50;1.00
1592;DHT22;789;51.612;7.510;2022-08-01T14:24:25;27.50;1.00
1592;DHT22;789;51.612;7.510;2022-08-01T14:26:52;27.60;1.00
1592;DHT22;789;51.612;7.510;2022-08-01T14:29:19;27.50;1.00
1592;DHT22;789;51.612;7.510;2022-08-01T14:31:46;27.60;1.00
1592;DHT22;789;51.612;7.510;2022-08-01T14:34:14;27.60;1.00
1592;DHT22;789;51.612;7.510;2022-08-01T14:36:41;27.70;1.00
1592;DHT22;789;51.612;7.510;2022-08-01T14:39:08;27.60;1.00
1592;DHT22;789;51.612;7.510;2022-08-01T14:41:35;27.50;1.00
1592;DHT22;789;51.612;7.510;2022-08-01T14:44:01;27.40;1.00
1592;DHT22;789;51.612;7.510;2022-08-01T14:46:29;27.30;1.00
1592;DHT22;789;51.612;7.510;2022-08-01T14:48:56;27.20;1.00
1592;DHT22;789;51.612;7.510;2022-08-01T14:51:24;27.00;1.00
1592;DHT22;789;51.612;7.510;2022-08-01T14:53:50;26.90;1.00
1592;DHT22;789;51.612;7.510;2022-08-01T14:56:18;26.80;1.00
1592;DHT22;789;51.612;7.510;2022-08-01T14:58:45;26.70;1.00
1592;DHT22;789;51.612;7.510;2022-08-01T15:01:11;26.60;1.00
1592;DHT22;789;51.612;7.510;2022-08-01T15:03:38;26.70;1.00
1592;DHT22;789;51.612;7.510;2022-08-01T15:06:06;26.70;1.00
1592;DHT22;789;51.612;7.510;2022-08-01T15:08:36;26.70;1.00
1592;DHT22;789;51.612;7.510;2022-08-01T15:11:06;26.80;1.00
1592;DHT22;789;51.612;7.510;2022-08-01T15:13:34;26.80;1.00
1592;DHT22;789;51.612;7.510;2022-08-01T15:16:00;26.90;1.00
1592;DHT22;789;51.612;7.510;2022-08-01T15:18:27;26.90;1.00
1592;DHT22;789;51.612;7.510;2022-08-01T15:20:54;26.90;1.00
1592;DHT22;789;51.612;7.510;2022-08-01T15:23:22;26.80;1.00
1592;DHT22;789;51.612;7.510;2022-08-01T15:25:53;26.90;1.00
1592;DHT22;789;51.612;7.510;2022-08-01T15:28:20;26.80;1.00
1592;DHT22;789;51.612;7.510;2022-08-01T15:30:47;26.80;1.00
1592;DHT22;789;51.612;7.510;2022-08-01T15:33:14;26.80;1.00
1592;DHT22;789;51.612;7.510;2022-08-01T15:35:42;26.80;1.00
1592;DHT22;789;51.612;7.510;2022-08-01T15:38:08;26.70;1.00
1592;DHT22;789;51.612;7.510;2022-08-01T15:40:39;26.60;1.00
1592;DHT22;789;51.612;7.510;2022-08-01T15:43:07;26.40;1.00
1592;DHT22;789;51.612;7.510;2022-08-01T15:45:34;26.20;1.00
1592;DHT22;789;51.612;7.510;2022-08-01T15:48:01;26.40;1.00
1592;DHT22;789;51.612;7.510;2022-08-01T15:50:29;26.30;1.00
1592;DHT22;789;51.612;7.510;2022-08-01T15:52:56;26.20;1.00
1592;DHT22;789;51.612;7.510;2022-08-01T15:55:23;26.10;1.00
1592;DHT22;789;51.612;7.510;2022-08-01T15:57:53;26.20;1.00
1592;DHT22;789;51.612;7.510;2022-08-01T16:00:22;26.20;1.00
1592;DHT22;789;51.612;7.510;2022-08-01T16:02:49;26.20;1.00
1592;DHT22;789;51.612;7.510;2022-08-01T16:05:15;26.20;1.00
1592;DHT22;789;51.612;7.510;2022-08-01T16:07:43;26.20;1.00
1592;DHT22;789;51.612;7.510;2022-08-01T16:10:09;26.30;1.00
1592;DHT22;789;51.612;7.510;2022-08-01T16:12:36;26.30;1.00
1592;DHT22;789;51.612;7.510;2022-08-01T16:15:03;26.40;1.00
1592;DHT22;789;51.612;7.510;2022-08-01T16:17:32;26.40;1.00
1592;DHT22;789;51.612;7.510;2022-08-01T16:19:58;26.30;1.00
1592;DHT22;789;51.612;7.510;2022-08-01T16:22:25;26.20;1.00
1592;DHT22;789;51.612;7.510;2022-08-01T16:24:52;26.10;1.00
1592;DHT22;789;51.612;7.510;2022-08-01T16:27:22;26.00;1.00
1592;DHT22;789;51.612;7.510;2022-08-01T16:29:48;26.00;1.00
1592;DHT22;789;51.612;7.510;2022-08-01T16:32:15;26.00;1.00
1592;DHT22;789;51.612;7.510;2022-08-01T16:34:43;25.90;1.00
1592;DHT22;789;51.612;7.510;2022-08-01T16:37:10;26.00;1.00
1592;DHT22;789;51.612;7.510;2022-08-01T16:39:36;25.90;1.00
1592;DHT22;789;51.612;7.510;2022-08-01T16:42:03;25.90;1.00
1592;DHT22;789;51.612;7.510;2022-08-01T16:44:30;25.90;1.00
1592;DHT22;789;51.612;7.510;2022-08-01T16:46:57;25.90;1.00
1592;DHT22;789;51.612;7.510;2022-08-01T16:49:23;25.90;1.00
1592;DHT22;789;51.612;7.510;2022-08-01T16:51:52;25.90;1.00